createdAt,value
2017-11-14T00:00:30.167Z,55.90
2017-11-14T00:01:30.155Z,55.81
2017-11-14T00:02:30.142Z,55.43
2017-11-14T00:03:30.140Z,55.33
2017-11-14T00:04:30.113Z,55.04
2017-11-14T00:05:30.100Z,54.94
2017-11-14T00:06:30.104Z,55.23
2017-11-14T00:07:30.072Z,55.33
2017-11-14T00:08:30.061Z,55.33
2017-11-14T00:09:30.054Z,55.04
2017-11-14T00:10:30.033Z,55.01
2017-11-14T00:11:30.018Z,55.33
2017-11-14T00:12:30.005Z,55.13
2017-11-14T00:13:29.990Z,55.33
2017-11-14T00:14:29.977Z,54.46
2017-11-14T00:15:29.962Z,54.34
2017-11-14T00:16:29.950Z,54.63
2017-11-14T00:17:29.937Z,54.53
2017-11-14T00:18:29.922Z,54.72
2017-11-14T00:19:29.908Z,54.72
2017-11-14T00:20:29.894Z,54.63
2017-11-14T00:21:29.882Z,54.24
2017-11-14T00:22:29.868Z,54.43
2017-11-14T00:23:29.854Z,54.53
2017-11-14T00:24:29.841Z,54.34
2017-11-14T00:25:29.826Z,54.53
2017-11-14T00:26:29.812Z,54.63
2017-11-14T00:27:29.798Z,54.82
2017-11-14T00:28:29.785Z,54.72
2017-11-14T00:29:29.773Z,54.72
2017-11-14T00:30:29.757Z,54.82
2017-11-14T00:31:29.745Z,54.63
2017-11-14T00:32:29.730Z,54.63
2017-11-14T00:33:29.716Z,54.82
2017-11-14T00:34:29.704Z,54.43
2017-11-14T00:35:29.689Z,54.82
2017-11-14T00:36:29.674Z,54.82
2017-11-14T00:37:29.662Z,54.53
2017-11-14T00:38:29.649Z,54.72
2017-11-14T00:39:29.633Z,54.82
2017-11-14T00:40:29.620Z,54.53
2017-11-14T00:41:29.606Z,54.91
2017-11-14T00:42:29.597Z,54.24
2017-11-14T00:43:29.580Z,54.34
2017-11-14T00:44:29.565Z,54.14
2017-11-14T00:45:29.552Z,54.05
2017-11-14T00:46:29.539Z,54.43
2017-11-14T00:47:29.524Z,53.86
2017-11-14T00:48:29.510Z,54.14
2017-11-14T00:49:29.496Z,54.43
2017-11-14T00:50:29.482Z,54.14
2017-11-14T00:51:29.468Z,54.34
2017-11-14T00:52:29.453Z,54.24
2017-11-14T00:53:29.442Z,54.34
2017-11-14T00:54:29.429Z,54.05
2017-11-14T00:55:29.413Z,54.05
2017-11-14T00:56:29.402Z,54.34
2017-11-14T00:57:29.386Z,54.43
2017-11-14T00:58:29.372Z,54.43
2017-11-14T00:59:29.358Z,53.83
2017-11-14T01:00:29.343Z,54.43
2017-11-14T01:01:29.331Z,54.43
2017-11-14T01:02:29.317Z,54.22
2017-11-14T01:03:29.301Z,54.14
2017-11-14T01:04:29.289Z,54.34
2017-11-14T01:05:29.275Z,54.24
2017-11-14T01:06:29.261Z,54.14
2017-11-14T01:07:29.246Z,54.43
2017-11-14T01:08:29.233Z,54.53
2017-11-14T01:09:29.220Z,53.76
2017-11-14T01:10:29.206Z,54.34
2017-11-14T01:11:29.192Z,54.24
2017-11-14T01:12:29.177Z,54.43
2017-11-14T01:13:29.163Z,54.24
2017-11-14T01:14:29.151Z,54.12
2017-11-14T01:15:29.136Z,54.34
2017-11-14T01:16:29.126Z,54.14
2017-11-14T01:17:29.107Z,54.12
2017-11-14T01:18:29.093Z,54.43
2017-11-14T01:19:29.080Z,54.41
2017-11-14T01:20:29.065Z,54.43
2017-11-14T01:21:29.051Z,54.22
2017-11-14T01:22:29.039Z,54.22
2017-11-14T01:23:29.023Z,54.05
2017-11-14T01:24:29.010Z,54.50
2017-11-14T01:25:28.997Z,54.12
2017-11-14T01:26:28.981Z,54.14
2017-11-14T01:27:28.966Z,54.12
2017-11-14T01:28:28.952Z,54.22
2017-11-14T01:29:28.939Z,54.22
2017-11-14T01:30:28.928Z,54.05
2017-11-14T01:31:28.911Z,54.05
2017-11-14T01:32:28.897Z,54.22
2017-11-14T01:33:28.890Z,54.02
2017-11-14T01:34:28.869Z,54.14
2017-11-14T01:35:28.854Z,54.12
2017-11-14T01:36:28.840Z,54.22
2017-11-14T01:37:28.825Z,53.83
2017-11-14T01:38:28.812Z,54.31
2017-11-14T01:39:28.798Z,54.22
2017-11-14T01:40:28.784Z,53.92
2017-11-14T01:41:28.771Z,54.22
2017-11-14T01:42:28.756Z,54.12
2017-11-14T01:43:28.742Z,54.02
2017-11-14T01:44:28.729Z,54.22
2017-11-14T01:45:28.717Z,54.12
2017-11-14T01:46:28.700Z,54.31
2017-11-14T01:47:28.685Z,54.02
2017-11-14T01:48:28.672Z,54.02
2017-11-14T01:49:28.658Z,54.02
2017-11-14T01:50:28.643Z,54.12
2017-11-14T01:51:28.631Z,54.22
2017-11-14T01:52:28.615Z,54.12
2017-11-14T01:53:28.601Z,53.83
2017-11-14T01:54:28.587Z,54.22
2017-11-14T01:55:28.573Z,54.02
2017-11-14T01:56:28.559Z,54.22
2017-11-14T01:57:28.545Z,54.41
2017-11-14T01:58:28.532Z,54.12
2017-11-14T01:59:28.516Z,54.79
2017-11-14T02:00:28.503Z,54.79
2017-11-14T02:01:28.496Z,54.41
2017-11-14T02:02:28.474Z,54.31
2017-11-14T02:03:28.460Z,54.50
2017-11-14T02:04:28.446Z,54.99
2017-11-14T02:05:28.432Z,55.37
2017-11-14T02:06:28.418Z,55.05
2017-11-14T02:07:28.403Z,54.99
2017-11-14T02:08:28.389Z,54.96
2017-11-14T02:09:28.375Z,54.96
2017-11-14T02:10:28.361Z,54.96
2017-11-14T02:11:28.346Z,54.96
2017-11-14T02:12:28.333Z,55.44
2017-11-14T02:13:28.319Z,55.34
2017-11-14T02:14:28.305Z,54.96
2017-11-14T02:15:28.289Z,55.05
2017-11-14T02:16:28.275Z,55.34
2017-11-14T02:17:28.272Z,54.96
2017-11-14T02:18:28.248Z,54.86
2017-11-14T02:19:28.233Z,54.77
2017-11-14T02:20:28.220Z,54.86
2017-11-14T02:21:28.203Z,55.05
2017-11-14T02:22:28.191Z,54.77
2017-11-14T02:23:28.175Z,55.05
2017-11-14T02:24:28.161Z,54.96
2017-11-14T02:25:28.148Z,54.86
2017-11-14T02:26:28.135Z,54.96
2017-11-14T02:27:28.119Z,54.96
2017-11-14T02:28:28.105Z,54.77
2017-11-14T02:29:28.091Z,55.05
2017-11-14T02:30:28.077Z,55.15
2017-11-14T02:31:28.062Z,54.96
2017-11-14T02:32:28.049Z,55.24
2017-11-14T02:33:28.034Z,55.15
2017-11-14T02:34:28.020Z,55.05
2017-11-14T02:35:28.006Z,55.44
2017-11-14T02:36:27.993Z,55.34
2017-11-14T02:37:27.977Z,54.77
2017-11-14T02:38:27.962Z,54.77
2017-11-14T02:39:27.948Z,54.77
2017-11-14T02:40:27.939Z,54.96
2017-11-14T02:41:27.919Z,55.34
2017-11-14T02:42:27.905Z,55.15
2017-11-14T02:43:27.897Z,55.34
2017-11-14T02:44:27.876Z,54.96
2017-11-14T02:45:27.862Z,54.96
2017-11-14T02:46:27.850Z,55.44
2017-11-14T02:47:27.834Z,54.47
2017-11-14T02:48:27.826Z,54.77
2017-11-14T02:49:27.805Z,54.96
2017-11-14T02:50:27.790Z,54.57
2017-11-14T02:51:27.780Z,54.47
2017-11-14T02:52:27.762Z,54.67
2017-11-14T02:53:27.747Z,54.77
2017-11-14T02:54:27.734Z,54.47
2017-11-14T02:55:27.720Z,54.67
2017-11-14T02:56:27.706Z,54.47
2017-11-14T02:57:27.690Z,54.28
2017-11-14T02:58:27.676Z,54.47
2017-11-14T02:59:27.661Z,54.28
2017-11-14T03:00:27.648Z,54.67
2017-11-14T03:01:27.632Z,54.28
2017-11-14T03:02:27.619Z,54.38
2017-11-14T03:03:27.604Z,54.67
2017-11-14T03:04:27.589Z,54.28
2017-11-14T03:05:27.575Z,54.38
2017-11-14T03:06:27.561Z,54.67
2017-11-14T03:07:27.546Z,54.38
2017-11-14T03:08:27.531Z,54.38
2017-11-14T03:09:27.517Z,54.19
2017-11-14T03:10:27.504Z,54.77
2017-11-14T03:11:27.488Z,54.57
2017-11-14T03:12:27.474Z,54.28
2017-11-14T03:13:27.460Z,54.28
2017-11-14T03:14:27.446Z,54.47
2017-11-14T03:15:27.431Z,54.67
2017-11-14T03:16:27.416Z,54.28
2017-11-14T03:17:27.402Z,54.47
2017-11-14T03:18:27.389Z,54.28
2017-11-14T03:19:27.372Z,54.47
2017-11-14T03:20:27.359Z,54.77
2017-11-14T03:21:27.344Z,54.57
2017-11-14T03:22:27.332Z,54.57
2017-11-14T03:23:27.316Z,54.28
2017-11-14T03:24:27.301Z,54.47
2017-11-14T03:25:27.286Z,54.19
2017-11-14T03:26:27.273Z,54.57
2017-11-14T03:27:27.258Z,54.28
2017-11-14T03:28:27.243Z,54.57
2017-11-14T03:29:27.229Z,54.38
2017-11-14T03:30:27.215Z,54.57
2017-11-14T03:31:27.200Z,54.28
2017-11-14T03:32:27.186Z,54.77
2017-11-14T03:33:27.170Z,54.67
2017-11-14T03:34:27.156Z,54.64
2017-11-14T03:35:27.147Z,54.28
2017-11-14T03:36:27.129Z,54.57
2017-11-14T03:37:27.114Z,54.57
2017-11-14T03:38:27.100Z,54.35
2017-11-14T03:39:27.084Z,54.77
2017-11-14T03:40:27.069Z,54.67
2017-11-14T03:41:27.055Z,54.64
2017-11-14T03:42:27.040Z,54.38
2017-11-14T03:43:27.025Z,54.16
2017-11-14T03:44:27.016Z,54.55
2017-11-14T03:45:26.997Z,54.45
2017-11-14T03:46:26.983Z,54.47
2017-11-14T03:47:26.966Z,54.28
2017-11-14T03:48:26.954Z,54.47
2017-11-14T03:49:26.942Z,54.09
2017-11-14T03:50:26.933Z,54.19
2017-11-14T03:51:26.910Z,54.19
2017-11-14T03:52:26.896Z,54.38
2017-11-14T03:53:26.882Z,54.19
2017-11-14T03:54:26.867Z,54.09
2017-11-14T03:55:26.852Z,54.09
2017-11-14T03:56:26.837Z,54.57
2017-11-14T03:57:26.823Z,54.00
2017-11-14T03:58:26.809Z,53.80
2017-11-14T03:59:26.795Z,53.90
2017-11-14T04:00:26.779Z,54.00
2017-11-14T04:01:26.767Z,53.80
2017-11-14T04:02:26.752Z,53.80
2017-11-14T04:03:26.735Z,53.70
2017-11-14T04:04:26.723Z,53.54
2017-11-14T04:05:26.708Z,53.35
2017-11-14T04:06:26.694Z,53.74
2017-11-14T04:07:26.683Z,53.25
2017-11-14T04:08:26.664Z,53.45
2017-11-14T04:09:26.651Z,53.06
2017-11-14T04:10:26.637Z,53.45
2017-11-14T04:11:26.621Z,52.97
2017-11-14T04:12:26.608Z,52.58
2017-11-14T04:13:26.593Z,52.58
2017-11-14T04:14:26.580Z,52.68
2017-11-14T04:15:26.565Z,52.58
2017-11-14T04:16:26.551Z,52.20
2017-11-14T04:17:26.536Z,52.39
2017-11-14T04:18:26.523Z,52.51
2017-11-14T04:19:26.509Z,52.29
2017-11-14T04:20:26.493Z,52.22
2017-11-14T04:21:26.480Z,52.10
2017-11-14T04:22:26.465Z,52.22
2017-11-14T04:23:26.451Z,52.22
2017-11-14T04:24:26.450Z,52.32
2017-11-14T04:25:26.424Z,52.39
2017-11-14T04:26:26.411Z,51.74
2017-11-14T04:27:26.396Z,52.12
2017-11-14T04:28:26.382Z,51.64
2017-11-14T04:29:26.368Z,52.03
2017-11-14T04:30:26.354Z,51.93
2017-11-14T04:31:26.341Z,51.74
2017-11-14T04:32:26.326Z,52.51
2017-11-14T04:33:26.314Z,51.84
2017-11-14T04:34:26.299Z,51.74
2017-11-14T04:35:26.284Z,51.84
2017-11-14T04:36:26.271Z,51.74
2017-11-14T04:37:26.257Z,52.03
2017-11-14T04:38:26.244Z,51.93
2017-11-14T04:39:26.229Z,51.93
2017-11-14T04:40:26.215Z,51.84
2017-11-14T04:41:26.203Z,51.93
2017-11-14T04:42:26.189Z,51.64
2017-11-14T04:43:26.173Z,51.64
2017-11-14T04:44:26.159Z,51.64
2017-11-14T04:45:26.147Z,51.64
2017-11-14T04:46:26.133Z,51.84
2017-11-14T04:47:26.119Z,51.93
2017-11-14T04:48:26.105Z,51.93
2017-11-14T04:49:26.091Z,51.74
2017-11-14T04:50:26.077Z,51.45
2017-11-14T04:51:26.063Z,52.03
2017-11-14T04:52:26.050Z,51.74
2017-11-14T04:53:26.036Z,51.64
2017-11-14T04:54:26.022Z,51.84
2017-11-14T04:55:26.007Z,51.93
2017-11-14T04:56:25.994Z,51.93
2017-11-14T04:57:25.981Z,51.45
2017-11-14T04:58:25.970Z,51.74
2017-11-14T04:59:25.952Z,51.74
2017-11-14T05:00:25.938Z,51.35
2017-11-14T05:01:25.928Z,51.74
2017-11-14T05:02:25.912Z,51.64
2017-11-14T05:03:25.897Z,51.74
2017-11-14T05:04:25.884Z,51.74
2017-11-14T05:05:25.870Z,51.45
2017-11-14T05:06:25.857Z,51.93
2017-11-14T05:07:25.849Z,51.74
2017-11-14T05:08:25.829Z,51.45
2017-11-14T05:09:25.815Z,51.55
2017-11-14T05:10:25.802Z,51.64
2017-11-14T05:11:25.788Z,51.55
2017-11-14T05:12:25.774Z,51.45
2017-11-14T05:13:25.810Z,51.45
2017-11-14T05:14:25.747Z,51.55
2017-11-14T05:15:25.731Z,51.84
2017-11-14T05:16:25.718Z,51.64
2017-11-14T05:17:25.705Z,51.55
2017-11-14T05:18:25.692Z,51.74
2017-11-14T05:19:25.677Z,51.64
2017-11-14T05:20:25.663Z,51.64
2017-11-14T05:21:25.650Z,51.35
2017-11-14T05:22:25.636Z,51.74
2017-11-14T05:23:25.621Z,51.84
2017-11-14T05:24:25.608Z,51.84
2017-11-14T05:25:25.594Z,51.84
2017-11-14T05:26:25.580Z,51.74
2017-11-14T05:27:25.566Z,52.03
2017-11-14T05:28:25.553Z,51.74
2017-11-14T05:29:25.540Z,51.74
2017-11-14T05:30:25.525Z,51.84
2017-11-14T05:31:25.512Z,51.74
2017-11-14T05:32:25.498Z,51.84
2017-11-14T05:33:25.483Z,51.35
2017-11-14T05:34:25.471Z,51.74
2017-11-14T05:35:25.455Z,51.74
2017-11-14T05:36:25.443Z,51.64
2017-11-14T05:37:25.430Z,51.74
2017-11-14T05:38:25.415Z,51.84
2017-11-14T05:39:25.401Z,51.93
2017-11-14T05:40:25.387Z,52.03
2017-11-14T05:41:25.374Z,52.51
2017-11-14T05:42:25.360Z,52.80
2017-11-14T05:43:25.345Z,52.61
2017-11-14T05:44:25.333Z,52.70
2017-11-14T05:45:25.318Z,52.89
2017-11-14T05:46:25.305Z,53.19
2017-11-14T05:47:25.291Z,53.38
2017-11-14T05:48:25.278Z,53.76
2017-11-14T05:49:25.263Z,53.66
2017-11-14T05:50:25.251Z,53.47
2017-11-14T05:51:25.246Z,53.57
2017-11-14T05:52:25.222Z,53.86
2017-11-14T05:53:25.208Z,53.76
2017-11-14T05:54:25.195Z,53.86
2017-11-14T05:55:25.181Z,53.96
2017-11-14T05:56:25.166Z,54.24
2017-11-14T05:57:25.154Z,54.63
2017-11-14T05:58:25.141Z,54.14
2017-11-14T05:59:25.131Z,54.24
2017-11-14T06:00:25.113Z,54.14
2017-11-14T06:01:25.098Z,54.27
2017-11-14T06:02:25.085Z,54.36
2017-11-14T06:03:25.070Z,54.17
2017-11-14T06:04:25.057Z,54.46
2017-11-14T06:05:25.048Z,54.75
2017-11-14T06:06:25.040Z,54.82
2017-11-14T06:07:25.021Z,54.56
2017-11-14T06:08:25.001Z,54.65
2017-11-14T06:09:24.996Z,54.65
2017-11-14T06:10:24.983Z,54.56
2017-11-14T06:11:24.967Z,54.72
2017-11-14T06:12:24.947Z,54.65
2017-11-14T06:13:24.933Z,54.46
2017-11-14T06:14:24.920Z,54.27
2017-11-14T06:15:24.907Z,54.27
2017-11-14T06:16:24.892Z,54.46
2017-11-14T06:17:24.879Z,55.13
2017-11-14T06:18:24.865Z,54.75
2017-11-14T06:19:24.851Z,54.85
2017-11-14T06:20:24.837Z,54.56
2017-11-14T06:21:24.823Z,54.46
2017-11-14T06:22:24.810Z,54.65
2017-11-14T06:23:24.797Z,54.75
2017-11-14T06:24:24.781Z,54.46
2017-11-14T06:25:24.770Z,54.65
2017-11-14T06:26:24.756Z,54.85
2017-11-14T06:27:24.741Z,54.65
2017-11-14T06:28:24.729Z,54.46
2017-11-14T06:29:24.714Z,54.85
2017-11-14T06:30:24.701Z,54.65
2017-11-14T06:31:24.687Z,54.56
2017-11-14T06:32:24.674Z,55.04
2017-11-14T06:33:24.665Z,55.13
2017-11-14T06:34:24.646Z,54.46
2017-11-14T06:35:24.633Z,54.75
2017-11-14T06:36:24.617Z,54.65
2017-11-14T06:37:24.605Z,54.65
2017-11-14T06:38:24.590Z,54.65
2017-11-14T06:39:24.576Z,54.65
2017-11-14T06:40:24.565Z,54.75
2017-11-14T06:41:24.550Z,55.43
2017-11-14T06:42:24.536Z,54.85
2017-11-14T06:43:24.523Z,54.75
2017-11-14T06:44:24.508Z,54.94
2017-11-14T06:45:24.495Z,55.23
2017-11-14T06:46:24.482Z,54.85
2017-11-14T06:47:24.467Z,54.75
2017-11-14T06:48:24.455Z,54.56
2017-11-14T06:49:24.441Z,54.85
2017-11-14T06:50:24.427Z,54.75
2017-11-14T06:51:24.412Z,54.65
2017-11-14T06:52:24.401Z,54.75
2017-11-14T06:53:24.386Z,54.46
2017-11-14T06:54:24.375Z,54.85
2017-11-14T06:55:24.359Z,54.65
2017-11-14T06:56:24.346Z,54.36
2017-11-14T06:57:24.332Z,54.85
2017-11-14T06:58:24.320Z,54.85
2017-11-14T06:59:24.304Z,54.27
2017-11-14T07:00:24.292Z,54.65
2017-11-14T07:01:24.277Z,54.65
2017-11-14T07:02:24.264Z,54.46
2017-11-14T07:03:24.249Z,54.36
2017-11-14T07:04:24.237Z,54.65
2017-11-14T07:05:24.224Z,54.56
2017-11-14T07:06:24.212Z,54.46
2017-11-14T07:07:24.194Z,54.75
2017-11-14T07:08:24.182Z,54.85
2017-11-14T07:09:24.169Z,54.65
2017-11-14T07:10:24.159Z,54.75
2017-11-14T07:11:24.141Z,54.27
2017-11-14T07:12:24.128Z,54.17
2017-11-14T07:13:24.114Z,54.36
2017-11-14T07:14:24.109Z,54.46
2017-11-14T07:15:24.086Z,54.27
2017-11-14T07:16:24.073Z,54.46
2017-11-14T07:17:24.061Z,54.56
2017-11-14T07:18:24.045Z,54.08
2017-11-14T07:19:24.031Z,54.27
2017-11-14T07:20:24.019Z,54.27
2017-11-14T07:21:24.005Z,54.17
2017-11-14T07:22:23.992Z,54.36
2017-11-14T07:23:23.976Z,53.98
2017-11-14T07:24:23.965Z,54.17
2017-11-14T07:25:23.952Z,54.46
2017-11-14T07:26:23.937Z,54.17
2017-11-14T07:27:23.923Z,53.78
2017-11-14T07:28:23.909Z,54.17
2017-11-14T07:29:23.897Z,53.78
2017-11-14T07:30:23.887Z,53.78
2017-11-14T07:31:23.868Z,54.08
2017-11-14T07:32:23.855Z,53.98
2017-11-14T07:33:23.841Z,53.59
2017-11-14T07:34:23.828Z,53.59
2017-11-14T07:35:23.814Z,53.78
2017-11-14T07:36:23.801Z,53.78
2017-11-14T07:37:23.787Z,53.69
2017-11-14T07:38:23.774Z,53.59
2017-11-14T07:39:23.759Z,53.78
2017-11-14T07:40:23.746Z,53.88
2017-11-14T07:41:23.733Z,53.78
2017-11-14T07:42:23.719Z,53.50
2017-11-14T07:43:23.704Z,53.88
2017-11-14T07:44:23.691Z,53.69
2017-11-14T07:45:23.678Z,53.59
2017-11-14T07:46:23.664Z,53.69
2017-11-14T07:47:23.652Z,53.78
2017-11-14T07:48:23.636Z,53.59
2017-11-14T07:49:23.623Z,53.78
2017-11-14T07:50:23.611Z,53.78
2017-11-14T07:51:23.595Z,54.08
2017-11-14T07:52:23.585Z,53.21
2017-11-14T07:53:23.569Z,53.69
2017-11-14T07:54:23.554Z,53.40
2017-11-14T07:55:23.540Z,53.69
2017-11-14T07:56:23.527Z,53.78
2017-11-14T07:57:23.514Z,53.88
2017-11-14T07:58:23.501Z,53.78
2017-11-14T07:59:23.486Z,53.69
2017-11-14T08:00:23.492Z,53.78
2017-11-14T08:01:23.459Z,53.59
2017-11-14T08:02:23.495Z,53.69
2017-11-14T08:03:23.431Z,53.69
2017-11-14T08:04:23.418Z,53.59
2017-11-14T08:05:23.404Z,53.88
2017-11-14T08:06:23.391Z,53.88
2017-11-14T08:07:23.377Z,53.88
2017-11-14T08:08:23.364Z,53.78
2017-11-14T08:09:23.349Z,53.78
2017-11-14T08:10:23.337Z,53.69
2017-11-14T08:11:23.322Z,53.40
2017-11-14T08:12:23.308Z,53.31
2017-11-14T08:13:23.295Z,53.88
2017-11-14T08:14:23.281Z,53.59
2017-11-14T08:15:23.266Z,53.40
2017-11-14T08:16:23.254Z,53.69
2017-11-14T08:17:23.238Z,53.50
2017-11-14T08:18:23.227Z,53.50
2017-11-14T08:19:23.212Z,53.88
2017-11-14T08:20:23.199Z,53.88
2017-11-14T08:21:23.186Z,53.59
2017-11-14T08:22:23.172Z,53.31
2017-11-14T08:23:23.158Z,53.59
2017-11-14T08:24:23.144Z,53.50
2017-11-14T08:25:23.131Z,53.59
2017-11-14T08:26:23.125Z,53.69
2017-11-14T08:27:23.103Z,53.69
2017-11-14T08:28:23.090Z,53.50
2017-11-14T08:29:23.076Z,53.69
2017-11-14T08:30:23.065Z,53.59
2017-11-14T08:31:23.048Z,53.31
2017-11-14T08:32:23.035Z,53.78
2017-11-14T08:33:23.022Z,53.31
2017-11-14T08:34:23.008Z,53.11
2017-11-14T08:35:22.995Z,53.69
2017-11-14T08:36:22.980Z,53.78
2017-11-14T08:37:22.973Z,53.50
2017-11-14T08:38:22.972Z,53.31
2017-11-14T08:39:22.940Z,53.11
2017-11-14T08:40:22.927Z,53.21
2017-11-14T08:41:22.912Z,53.40
2017-11-14T08:42:22.900Z,53.50
2017-11-14T08:43:22.885Z,53.40
2017-11-14T08:44:22.872Z,53.69
2017-11-14T08:45:22.858Z,53.40
2017-11-14T08:46:22.847Z,52.73
2017-11-14T08:47:22.831Z,53.31
2017-11-14T08:48:22.817Z,52.83
2017-11-14T08:49:22.803Z,53.69
2017-11-14T08:50:22.790Z,53.21
2017-11-14T08:51:22.776Z,53.21
2017-11-14T08:52:22.763Z,53.11
2017-11-14T08:53:22.750Z,53.50
2017-11-14T08:54:22.735Z,52.83
2017-11-14T08:55:22.722Z,53.11
2017-11-14T08:56:22.708Z,52.92
2017-11-14T08:57:22.700Z,53.11
2017-11-14T08:58:22.682Z,52.63
2017-11-14T08:59:22.667Z,52.83
2017-11-14T09:00:22.654Z,52.63
2017-11-14T09:01:22.641Z,52.73
2017-11-14T09:02:22.629Z,52.83
2017-11-14T09:03:23.869Z,52.34
2017-11-14T09:04:22.600Z,52.73
2017-11-14T09:05:22.586Z,52.25
2017-11-14T09:06:22.574Z,52.44
2017-11-14T09:07:22.558Z,52.73
2017-11-14T09:08:22.547Z,52.06
2017-11-14T09:09:22.533Z,52.34
2017-11-14T09:10:22.518Z,52.44
2017-11-14T09:11:22.505Z,52.54
2017-11-14T09:12:22.491Z,52.34
2017-11-14T09:13:22.478Z,52.06
2017-11-14T09:14:22.465Z,52.34
2017-11-14T09:15:22.453Z,52.44
2017-11-14T09:16:22.438Z,51.86
2017-11-14T09:17:22.425Z,52.25
2017-11-14T09:18:22.413Z,52.15
2017-11-14T09:19:22.396Z,52.34
2017-11-14T09:20:22.383Z,52.06
2017-11-14T09:21:22.371Z,51.79
2017-11-14T09:22:22.357Z,51.96
2017-11-14T09:23:22.342Z,51.89
2017-11-14T09:24:22.334Z,51.79
2017-11-14T09:25:22.316Z,51.48
2017-11-14T09:26:22.303Z,51.96
2017-11-14T09:27:22.289Z,52.47
2017-11-14T09:28:22.276Z,52.06
2017-11-14T09:29:22.263Z,52.08
2017-11-14T09:30:22.249Z,52.44
2017-11-14T09:31:22.235Z,51.96
2017-11-14T09:32:22.222Z,52.54
2017-11-14T09:33:22.212Z,51.79
2017-11-14T09:34:22.196Z,51.48
2017-11-14T09:35:22.182Z,51.67
2017-11-14T09:36:22.168Z,51.86
2017-11-14T09:37:22.156Z,51.89
2017-11-14T09:38:22.143Z,52.06
2017-11-14T09:39:22.128Z,51.86
2017-11-14T09:40:22.115Z,51.96
2017-11-14T09:41:22.110Z,51.96
2017-11-14T09:42:22.094Z,51.89
2017-11-14T09:43:22.075Z,52.06
2017-11-14T09:44:22.061Z,51.96
2017-11-14T09:45:22.054Z,52.47
2017-11-14T09:46:22.034Z,52.06
2017-11-14T09:47:22.022Z,51.98
2017-11-14T09:48:22.008Z,51.86
2017-11-14T09:49:22.002Z,51.79
2017-11-14T09:50:21.981Z,51.70
2017-11-14T09:51:21.968Z,51.96
2017-11-14T09:52:21.954Z,51.86
2017-11-14T09:53:21.940Z,51.96
2017-11-14T09:54:21.927Z,51.70
2017-11-14T09:55:21.914Z,51.98
2017-11-14T09:56:21.902Z,51.60
2017-11-14T09:57:21.887Z,51.79
2017-11-14T09:58:21.873Z,51.79
2017-11-14T09:59:21.860Z,51.89
2017-11-14T10:00:21.846Z,51.89
2017-11-14T10:01:21.833Z,51.89
2017-11-14T10:02:21.821Z,51.60
2017-11-14T10:03:21.806Z,51.70
2017-11-14T10:04:24.097Z,51.70
2017-11-14T10:05:21.780Z,51.70
2017-11-14T10:06:21.767Z,51.70
2017-11-14T10:07:21.753Z,51.79
2017-11-14T10:08:21.739Z,51.70
2017-11-14T10:09:21.726Z,51.70
2017-11-14T10:10:21.713Z,51.89
2017-11-14T10:11:21.698Z,51.98
2017-11-14T10:12:21.686Z,52.08
2017-11-14T10:13:21.673Z,51.41
2017-11-14T10:14:21.660Z,51.21
2017-11-14T10:15:21.645Z,51.31
2017-11-14T10:16:21.632Z,51.50
2017-11-14T10:17:21.619Z,51.31
2017-11-14T10:18:21.605Z,51.31
2017-11-14T10:19:21.591Z,51.31
2017-11-14T10:20:21.578Z,51.02
2017-11-14T10:21:21.565Z,51.02
2017-11-14T10:22:21.552Z,50.93
2017-11-14T10:23:21.539Z,51.12
2017-11-14T10:24:21.525Z,50.85
2017-11-14T10:25:21.522Z,50.37
2017-11-14T10:26:21.500Z,50.76
2017-11-14T10:27:21.485Z,50.47
2017-11-14T10:28:21.473Z,50.47
2017-11-14T10:29:21.459Z,50.47
2017-11-14T10:30:21.452Z,50.37
2017-11-14T10:31:21.432Z,50.18
2017-11-14T10:32:21.420Z,49.79
2017-11-14T10:33:21.407Z,50.09
2017-11-14T10:34:21.393Z,49.60
2017-11-14T10:35:21.381Z,49.99
2017-11-14T10:36:21.367Z,49.99
2017-11-14T10:37:21.355Z,49.89
2017-11-14T10:38:21.346Z,49.79
2017-11-14T10:39:21.328Z,49.89
2017-11-14T10:40:21.315Z,49.70
2017-11-14T10:41:21.305Z,49.79
2017-11-14T10:42:21.290Z,49.60
2017-11-14T10:43:21.276Z,49.70
2017-11-14T10:44:21.264Z,49.60
2017-11-14T10:45:21.250Z,49.89
2017-11-14T10:46:21.237Z,49.79
2017-11-14T10:47:21.223Z,50.09
2017-11-14T10:48:21.211Z,49.70
2017-11-14T10:49:21.197Z,49.99
2017-11-14T10:50:21.186Z,49.79
2017-11-14T10:51:21.173Z,49.51
2017-11-14T10:52:21.158Z,49.60
2017-11-14T10:53:21.149Z,49.51
2017-11-14T10:54:21.134Z,49.73
2017-11-14T10:55:21.119Z,49.63
2017-11-14T10:56:21.108Z,49.73
2017-11-14T10:57:21.094Z,49.34
2017-11-14T10:58:21.084Z,49.15
2017-11-14T10:59:21.069Z,49.63
2017-11-14T11:00:21.155Z,49.15
2017-11-14T11:01:21.044Z,49.73
2017-11-14T11:02:21.029Z,49.34
2017-11-14T11:03:21.018Z,49.34
2017-11-14T11:04:21.004Z,48.95
2017-11-14T11:05:21.042Z,49.05
2017-11-14T11:06:20.980Z,48.38
2017-11-14T11:07:20.966Z,48.95
2017-11-14T11:08:20.953Z,48.95
2017-11-14T11:09:20.941Z,48.57
2017-11-14T11:10:20.930Z,48.76
2017-11-14T11:11:20.916Z,48.95
2017-11-14T11:12:20.904Z,48.76
2017-11-14T11:13:20.890Z,48.76
2017-11-14T11:14:20.879Z,48.86
2017-11-14T11:15:20.864Z,48.59
2017-11-14T11:16:20.852Z,48.38
2017-11-14T11:17:20.841Z,48.57
2017-11-14T11:18:20.827Z,48.47
2017-11-14T11:19:20.814Z,48.40
2017-11-14T11:20:20.803Z,48.66
2017-11-14T11:21:20.791Z,48.57
2017-11-14T11:22:20.783Z,48.28
2017-11-14T11:23:20.764Z,48.21
2017-11-14T11:24:20.752Z,48.30
2017-11-14T11:25:20.892Z,48.01
2017-11-14T11:26:20.727Z,48.11
2017-11-14T11:27:20.715Z,48.30
2017-11-14T11:28:20.702Z,48.01
2017-11-14T11:29:20.691Z,48.11
2017-11-14T11:30:20.679Z,48.01
2017-11-14T11:31:20.666Z,47.72
2017-11-14T11:32:20.654Z,48.11
2017-11-14T11:33:20.642Z,48.01
2017-11-14T11:34:20.629Z,47.92
2017-11-14T11:35:20.616Z,48.11
2017-11-14T11:36:20.604Z,47.92
2017-11-14T11:37:20.593Z,48.01
2017-11-14T11:38:20.585Z,48.21
2017-11-14T11:39:20.568Z,48.30
2017-11-14T11:40:20.556Z,48.40
2017-11-14T11:41:20.543Z,47.82
2017-11-14T11:42:20.531Z,48.49
2017-11-14T11:43:20.518Z,48.30
2017-11-14T11:44:20.507Z,47.92
2017-11-14T11:45:20.493Z,48.40
2017-11-14T11:46:20.482Z,47.82
2017-11-14T11:47:20.468Z,48.30
2017-11-14T11:48:20.456Z,48.30
2017-11-14T11:49:20.446Z,48.30
2017-11-14T11:50:20.436Z,47.72
2017-11-14T11:51:20.425Z,47.44
2017-11-14T11:52:20.408Z,47.63
2017-11-14T11:53:20.395Z,47.63
2017-11-14T11:54:20.383Z,48.01
2017-11-14T11:55:20.371Z,48.30
2017-11-14T11:56:20.359Z,48.30
2017-11-14T11:57:20.349Z,48.69
2017-11-14T11:58:20.334Z,48.49
2017-11-14T11:59:20.321Z,48.21
2017-11-14T12:00:20.308Z,48.69
2017-11-14T12:01:20.296Z,49.46
2017-11-14T12:02:20.283Z,49.55
2017-11-14T12:03:20.271Z,49.55
2017-11-14T12:04:20.259Z,49.65
2017-11-14T12:05:20.246Z,49.37
2017-11-14T12:06:20.234Z,49.17
2017-11-14T12:07:20.221Z,49.55
2017-11-14T12:08:20.208Z,49.75
2017-11-14T12:09:20.196Z,49.94
2017-11-14T12:10:20.183Z,49.65
2017-11-14T12:11:20.171Z,49.65
2017-11-14T12:12:20.158Z,50.04
2017-11-14T12:13:20.146Z,49.75
2017-11-14T12:14:20.133Z,49.65
2017-11-14T12:15:20.119Z,49.94
2017-11-14T12:16:20.108Z,49.84
2017-11-14T12:17:20.096Z,50.04
2017-11-14T12:18:20.083Z,50.13
2017-11-14T12:19:20.069Z,49.75
2017-11-14T12:20:20.057Z,50.04
2017-11-14T12:21:20.053Z,50.01
2017-11-14T12:22:20.032Z,50.69
2017-11-14T12:23:20.019Z,50.90
2017-11-14T12:24:20.006Z,50.81
2017-11-14T12:25:19.993Z,50.49
2017-11-14T12:26:19.981Z,50.78
2017-11-14T12:27:19.968Z,50.69
2017-11-14T12:28:19.955Z,50.40
2017-11-14T12:29:19.941Z,50.49
2017-11-14T12:30:19.930Z,50.49
2017-11-14T12:31:19.916Z,50.78
2017-11-14T12:32:19.904Z,50.49
2017-11-14T12:33:19.891Z,50.88
2017-11-14T12:34:19.880Z,50.69
2017-11-14T12:35:19.866Z,50.69
2017-11-14T12:36:19.853Z,50.59
2017-11-14T12:37:19.840Z,50.78
2017-11-14T12:38:19.829Z,50.69
2017-11-14T12:39:19.813Z,50.88
2017-11-14T12:40:19.801Z,50.88
2017-11-14T12:41:19.788Z,50.98
2017-11-14T12:42:19.775Z,50.98
2017-11-14T12:43:19.762Z,51.07
2017-11-14T12:44:19.749Z,50.88
2017-11-14T12:45:19.743Z,50.98
2017-11-14T12:46:19.724Z,51.07
2017-11-14T12:47:19.709Z,50.98
2017-11-14T12:48:19.697Z,51.26
2017-11-14T12:49:19.685Z,51.17
2017-11-14T12:50:19.670Z,51.26
2017-11-14T12:51:19.660Z,51.17
2017-11-14T12:52:19.644Z,51.17